createdAt,value
2019-05-02T00:01:23.665Z,54.90
2019-05-02T00:03:56.430Z,56.55
2019-05-02T00:06:29.724Z,57.94
2019-05-02T00:09:03.938Z,60.69
2019-05-02T00:11:39.082Z,61.28
2019-05-02T00:14:12.791Z,63.56
2019-05-02T00:16:49.312Z,54.78
2019-05-02T00:19:19.978Z,54.33
2019-05-02T00:21:53.266Z,56.33
2019-05-02T00:24:26.985Z,58.21
2019-05-02T00:27:01.301Z,59.38
2019-05-02T00:29:34.784Z,61.61
2019-05-02T00:32:07.572Z,61.95
2019-05-02T00:34:41.392Z,63.16
2019-05-02T00:37:14.067Z,55.66
2019-05-02T00:39:49.170Z,52.24
2019-05-02T00:42:22.507Z,54.47
2019-05-02T00:44:55.476Z,56.93
2019-05-02T00:47:47.723Z,58.99
2019-05-02T00:50:21.325Z,59.76
2019-05-02T00:52:53.998Z,61.87
2019-05-02T00:55:28.960Z,60.72
2019-05-02T00:58:02.116Z,53.33
2019-05-02T01:00:37.047Z,53.89
2019-05-02T01:03:11.054Z,56.11
2019-05-02T01:05:44.861Z,57.77
2019-05-02T01:08:17.553Z,59.88
2019-05-02T01:10:52.148Z,60.07
2019-05-02T01:13:26.907Z,61.56
2019-05-02T01:16:01.017Z,63.13
2019-05-02T01:18:37.142Z,54.17
2019-05-02T01:21:08.058Z,51.89
2019-05-02T01:23:40.679Z,53.56
2019-05-02T01:26:13.354Z,56.60
2019-05-02T01:28:49.132Z,57.58
2019-05-02T01:31:38.079Z,58.65
2019-05-02T01:34:28.776Z,60.17
2019-05-02T01:37:03.092Z,61.21
2019-05-02T01:39:37.932Z,62.04
2019-05-02T01:42:11.364Z,64.40
2019-05-02T01:44:44.000Z,56.11
2019-05-02T01:47:17.449Z,51.19
2019-05-02T01:49:51.961Z,53.86
2019-05-02T01:52:25.705Z,55.54
2019-05-02T01:54:58.408Z,57.45
2019-05-02T01:57:31.179Z,59.82
2019-05-02T02:00:09.593Z,60.93
2019-05-02T02:02:39.315Z,61.50
2019-05-02T02:05:12.088Z,63.28
2019-05-02T02:07:44.759Z,63.34
2019-05-02T02:10:19.805Z,54.82
2019-05-02T02:13:03.562Z,51.78
2019-05-02T02:15:29.088Z,54.11
2019-05-02T02:18:00.804Z,56.46
2019-05-02T02:20:45.189Z,57.46
2019-05-02T02:23:32.068Z,61.30
2019-05-02T02:26:13.879Z,63.92
2019-05-02T02:28:46.551Z,58.87
2019-05-02T02:31:25.304Z,53.68
2019-05-02T02:33:59.722Z,55.60
2019-05-02T02:36:34.627Z,57.98
2019-05-02T02:39:14.586Z,60.50
2019-05-02T02:41:45.319Z,63.00
2019-05-02T02:44:39.844Z,56.49
2019-05-02T02:47:18.759Z,53.63
2019-05-02T02:49:45.773Z,55.94
2019-05-02T02:52:18.442Z,58.30
2019-05-02T02:54:51.084Z,59.35
2019-05-02T02:57:27.933Z,61.69
2019-05-02T03:00:06.732Z,61.85
2019-05-02T03:02:33.304Z,64.07
2019-05-02T03:05:08.690Z,54.79
2019-05-02T03:07:41.385Z,54.89
2019-05-02T03:10:14.169Z,57.61
2019-05-02T03:12:49.646Z,58.60
2019-05-02T03:15:27.866Z,61.10
2019-05-02T03:18:00.048Z,62.95
2019-05-02T03:20:40.149Z,60.23
2019-05-02T03:23:07.190Z,53.69
2019-05-02T03:25:50.487Z,55.41
2019-05-02T03:28:18.618Z,58.39
2019-05-02T03:30:49.210Z,60.17
2019-05-02T03:33:22.349Z,61.48
2019-05-02T03:35:56.362Z,63.12
2019-05-02T03:38:32.385Z,59.97
2019-05-02T03:41:04.455Z,51.80
2019-05-02T03:43:37.122Z,54.07
2019-05-02T03:46:13.495Z,56.57
2019-05-02T03:48:44.426Z,59.07
2019-05-02T03:51:21.439Z,60.57
2019-05-02T03:53:51.524Z,61.64
2019-05-02T03:56:24.308Z,62.87
2019-05-02T03:58:58.174Z,56.53
2019-05-02T04:01:34.835Z,55.56
2019-05-02T04:04:07.462Z,58.12
2019-05-02T04:06:40.293Z,60.13
2019-05-02T04:09:32.037Z,61.80
2019-05-02T04:12:11.781Z,63.14
2019-05-02T04:14:40.101Z,59.25
2019-05-02T04:17:13.495Z,53.91
2019-05-02T04:19:46.476Z,55.96
2019-05-02T04:22:21.325Z,58.50
2019-05-02T04:24:54.836Z,60.23
2019-05-02T04:27:34.127Z,61.76
2019-05-02T04:30:09.721Z,62.97
2019-05-02T04:32:37.645Z,57.38
2019-05-02T04:35:10.325Z,53.88
2019-05-02T04:37:43.827Z,56.14
2019-05-02T04:40:18.232Z,57.98
2019-05-02T04:43:01.053Z,59.76
2019-05-02T04:45:35.905Z,60.86
2019-05-02T04:48:03.923Z,61.45
2019-05-02T04:50:34.073Z,63.42
2019-05-02T04:53:08.614Z,55.86
2019-05-02T04:55:42.096Z,55.97
2019-05-02T04:58:24.263Z,57.92
2019-05-02T05:00:53.568Z,59.54
2019-05-02T05:03:24.027Z,60.38
2019-05-02T05:05:59.364Z,61.39
2019-05-02T05:08:31.922Z,62.68
2019-05-02T05:11:04.783Z,59.54
2019-05-02T05:13:37.597Z,54.07
2019-05-02T05:16:15.351Z,55.81
2019-05-02T05:18:49.384Z,58.08
2019-05-02T05:21:19.667Z,59.24
2019-05-02T05:24:00.979Z,60.25
2019-05-02T05:26:33.791Z,60.50
2019-05-02T05:29:08.215Z,60.68
2019-05-02T05:31:41.019Z,60.93
2019-05-02T05:34:13.740Z,61.53
2019-05-02T05:36:48.147Z,61.68
2019-05-02T05:39:20.989Z,62.32
2019-05-02T05:41:55.098Z,63.35
2019-05-02T05:44:32.465Z,53.91
2019-05-02T05:47:02.831Z,55.54
2019-05-02T05:49:37.513Z,57.49
2019-05-02T05:52:10.525Z,58.71
2019-05-02T05:54:43.309Z,59.88
2019-05-02T05:57:20.826Z,61.01
2019-05-02T05:59:50.922Z,61.70
2019-05-02T06:02:23.620Z,62.11
2019-05-02T06:05:02.538Z,61.79
2019-05-02T06:07:33.099Z,52.38
2019-05-02T06:10:07.944Z,53.56
2019-05-02T06:12:40.153Z,55.94
2019-05-02T06:15:12.981Z,57.65
2019-05-02T06:17:45.623Z,58.95
2019-05-02T06:20:18.494Z,59.45
2019-05-02T06:22:55.084Z,60.73
2019-05-02T06:25:34.191Z,61.19
2019-05-02T06:28:05.462Z,61.13
2019-05-02T06:30:36.182Z,61.04
2019-05-02T06:33:08.872Z,60.67
2019-05-02T06:35:41.848Z,60.29
2019-05-02T06:38:14.475Z,60.47
2019-05-02T06:40:47.916Z,61.01
2019-05-02T06:43:21.211Z,60.83
2019-05-02T06:45:53.989Z,60.61
2019-05-02T06:48:26.678Z,60.47
2019-05-02T06:51:00.739Z,60.66
2019-05-02T06:53:35.105Z,60.81
2019-05-02T06:56:07.937Z,60.60
2019-05-02T06:58:43.299Z,60.75
2019-05-02T07:01:20.635Z,61.25
2019-05-02T07:03:50.528Z,61.08
2019-05-02T07:06:23.543Z,61.17
2019-05-02T07:08:59.669Z,61.01
2019-05-02T07:11:33.215Z,60.99
2019-05-02T07:14:13.675Z,61.09
2019-05-02T07:16:43.299Z,61.39
2019-05-02T07:19:36.084Z,61.58
2019-05-02T07:22:10.017Z,62.12
2019-05-02T07:24:42.839Z,62.17
2019-05-02T07:27:15.572Z,62.57
2019-05-02T07:29:52.184Z,56.06
2019-05-02T07:32:24.655Z,52.48
2019-05-02T07:34:57.811Z,53.77
2019-05-02T07:37:31.902Z,55.73
2019-05-02T07:40:06.544Z,56.59
2019-05-02T07:42:41.834Z,56.95
2019-05-02T07:45:15.991Z,57.40
2019-05-02T07:47:48.708Z,57.56
2019-05-02T07:50:21.692Z,56.78
2019-05-02T07:52:54.445Z,57.34
2019-05-02T07:55:30.541Z,57.25
2019-05-02T07:58:07.010Z,57.25
2019-05-02T08:00:37.113Z,57.48
2019-05-02T08:03:10.783Z,57.67
2019-05-02T08:05:43.477Z,57.61
2019-05-02T08:08:16.141Z,57.77
2019-05-02T08:10:53.862Z,57.70
2019-05-02T08:13:23.755Z,57.52
2019-05-02T08:15:58.373Z,58.04
2019-05-02T08:18:31.752Z,58.73
2019-05-02T08:21:04.768Z,58.67
2019-05-02T08:23:37.555Z,58.36
2019-05-02T08:26:10.222Z,58.02
2019-05-02T08:28:46.959Z,57.89
2019-05-02T08:31:20.861Z,58.16
2019-05-02T08:33:53.175Z,58.10
2019-05-02T08:36:25.868Z,58.49
2019-05-02T08:38:58.634Z,58.41
2019-05-02T08:41:31.923Z,58.18
2019-05-02T08:44:04.709Z,58.08
2019-05-02T08:46:37.400Z,58.01
2019-05-02T08:49:14.200Z,58.31
2019-05-02T08:51:44.496Z,58.83
2019-05-02T08:54:17.167Z,58.29
2019-05-02T08:56:53.340Z,58.60
2019-05-02T08:59:26.221Z,58.75
2019-05-02T09:01:59.603Z,58.95
2019-05-02T09:04:32.401Z,58.41
2019-05-02T09:07:05.035Z,58.46
2019-05-02T09:09:37.863Z,58.60
2019-05-02T09:12:13.253Z,58.48
2019-05-02T09:14:44.962Z,58.46
2019-05-02T09:17:17.583Z,58.67
2019-05-02T09:20:00.285Z,58.53
2019-05-02T09:22:26.571Z,58.58
2019-05-02T09:25:02.113Z,58.38
2019-05-02T09:27:34.793Z,58.30
2019-05-02T09:30:17.099Z,58.19
2019-05-02T09:32:47.646Z,58.21
2019-05-02T09:35:22.951Z,57.81
2019-05-02T09:37:55.346Z,57.94
2019-05-02T09:40:28.018Z,57.82
2019-05-02T09:43:02.824Z,57.90
2019-05-02T09:45:37.511Z,57.70
2019-05-02T09:48:12.577Z,57.72
2019-05-02T09:50:45.803Z,57.26
2019-05-02T09:53:20.761Z,57.76
2019-05-02T09:55:57.713Z,57.40
2019-05-02T09:58:28.974Z,57.20
2019-05-02T10:01:03.288Z,56.86
2019-05-02T10:03:35.905Z,56.89
2019-05-02T10:06:16.443Z,56.80
2019-05-02T10:08:46.344Z,56.80
2019-05-02T10:11:22.499Z,55.95
2019-05-02T10:13:55.293Z,55.09
2019-05-02T10:16:27.448Z,55.62
2019-05-02T10:19:09.516Z,54.14
2019-05-02T10:21:35.975Z,53.79
2019-05-02T10:24:08.869Z,53.99
2019-05-02T10:26:42.041Z,54.12
2019-05-02T10:29:15.147Z,53.77
2019-05-02T10:31:47.931Z,53.76
2019-05-02T10:34:22.683Z,53.39
2019-05-02T10:36:58.951Z,53.68
2019-05-02T10:39:36.135Z,53.10
2019-05-02T10:42:03.664Z,52.57
2019-05-02T10:44:36.695Z,52.45
2019-05-02T10:47:09.533Z,52.31
2019-05-02T10:49:43.756Z,52.27
2019-05-02T10:52:16.532Z,52.38
2019-05-02T10:54:49.213Z,52.16
2019-05-02T10:57:22.025Z,52.78
2019-05-02T10:59:56.240Z,52.05
2019-05-02T11:02:36.146Z,52.61
2019-05-02T11:05:11.982Z,51.87
2019-05-02T11:07:44.789Z,52.15
2019-05-02T11:10:19.325Z,51.54
2019-05-02T11:13:09.746Z,51.35
2019-05-02T11:15:52.505Z,51.14
2019-05-02T11:18:39.429Z,50.79
2019-05-02T11:21:06.818Z,50.64
2019-05-02T11:23:36.289Z,50.68
2019-05-02T11:26:16.339Z,50.06
2019-05-02T11:28:43.893Z,50.13
2019-05-02T11:31:16.777Z,50.22
2019-05-02T11:33:49.461Z,50.50
2019-05-02T11:36:22.502Z,51.08
2019-05-02T11:39:03.208Z,51.15
2019-05-02T11:41:31.743Z,50.73
2019-05-02T11:44:05.399Z,50.39
2019-05-02T11:46:42.934Z,51.18
2019-05-02T11:49:13.765Z,51.17
2019-05-02T11:51:47.183Z,51.64
2019-05-02T11:54:22.625Z,51.64
2019-05-02T11:56:55.155Z,51.83
2019-05-02T11:59:29.317Z,52.37
2019-05-02T12:02:17.507Z,52.76
2019-05-02T12:04:47.333Z,53.07
2019-05-02T12:07:18.602Z,53.11
2019-05-02T12:09:56.836Z,53.49
2019-05-02T12:12:27.203Z,54.00
2019-05-02T12:15:02.467Z,53.97
2019-05-02T12:17:35.211Z,54.09
2019-05-02T12:20:08.553Z,53.55
2019-05-02T12:22:41.977Z,53.69
2019-05-02T12:25:15.503Z,53.38
2019-05-02T12:27:48.177Z,53.25
2019-05-02T12:30:22.850Z,52.85
2019-05-02T12:32:57.087Z,52.87
2019-05-02T12:35:32.123Z,52.47
2019-05-02T12:38:04.603Z,52.42
2019-05-02T12:40:37.267Z,52.54
2019-05-02T12:43:11.836Z,52.40
2019-05-02T12:45:44.361Z,52.89
2019-05-02T12:48:17.060Z,52.82
2019-05-02T12:50:49.818Z,52.99
2019-05-02T12:53:23.105Z,52.70
2019-05-02T12:55:57.021Z,52.37
2019-05-02T12:58:29.707Z,52.48
2019-05-02T13:01:02.917Z,52.83
2019-05-02T13:03:37.259Z,52.30
2019-05-02T13:06:12.098Z,52.60
2019-05-02T13:08:52.502Z,52.76
2019-05-02T13:11:32.010Z,52.92
2019-05-02T13:14:04.570Z,52.61
2019-05-02T13:16:37.295Z,52.99
2019-05-02T13:19:11.928Z,52.98
2019-05-02T13:22:02.534Z,52.76
2019-05-02T13:24:36.740Z,52.86
2019-05-02T13:27:12.596Z,52.91
2019-05-02T13:29:45.736Z,52.21
2019-05-02T13:32:21.764Z,52.06
2019-05-02T13:35:12.869Z,52.25
2019-05-02T13:37:47.314Z,52.25
2019-05-02T13:40:22.724Z,52.33
2019-05-02T13:42:55.503Z,52.41
2019-05-02T13:45:33.086Z,52.39
2019-05-02T13:48:07.294Z,52.37
2019-05-02T13:50:40.084Z,52.58
2019-05-02T13:53:12.814Z,52.35
2019-05-02T13:55:49.639Z,52.17
2019-05-02T13:58:28.908Z,51.87
2019-05-02T14:00:56.586Z,52.01
2019-05-02T14:03:29.271Z,51.67
2019-05-02T14:06:02.952Z,51.39
2019-05-02T14:08:37.655Z,51.60
2019-05-02T14:11:10.014Z,52.20
2019-05-02T14:13:42.751Z,52.39
2019-05-02T14:16:15.391Z,51.50
2019-05-02T14:18:48.155Z,51.86
2019-05-02T14:21:22.407Z,51.57
2019-05-02T14:23:55.110Z,51.78
2019-05-02T14:26:30.576Z,50.82
2019-05-02T14:29:02.534Z,50.28
2019-05-02T14:31:36.781Z,50.42
2019-05-02T14:34:23.582Z,50.01
2019-05-02T14:36:59.237Z,51.02
2019-05-02T14:39:32.513Z,50.14
2019-05-02T14:42:05.512Z,50.05
2019-05-02T14:45:01.481Z,50.01
2019-05-02T14:47:18.200Z,50.43
2019-05-02T14:49:48.315Z,51.14
2019-05-02T14:52:22.141Z,50.44
2019-05-02T14:54:55.755Z,50.38
2019-05-02T14:57:28.607Z,51.20
2019-05-02T15:00:03.249Z,50.75
2019-05-02T15:02:48.784Z,50.92
2019-05-02T15:05:19.233Z,50.81
2019-05-02T15:07:56.933Z,50.93
2019-05-02T15:10:27.415Z,50.55
2019-05-02T15:13:01.931Z,50.67
2019-05-02T15:15:40.860Z,50.82
2019-05-02T15:18:15.832Z,50.61
2019-05-02T15:20:44.880Z,49.66
2019-05-02T15:23:19.835Z,48.80
2019-05-02T15:25:55.975Z,48.61
2019-05-02T15:28:30.579Z,48.30
2019-05-02T15:31:05.337Z,47.52
2019-05-02T15:33:39.554Z,46.98
2019-05-02T15:36:14.212Z,46.86
2019-05-02T15:38:47.614Z,46.45
2019-05-02T15:41:21.819Z,45.73
2019-05-02T15:43:54.658Z,44.68
2019-05-02T15:46:28.343Z,43.93
2019-05-02T15:49:01.862Z,43.16
2019-05-02T15:51:37.927Z,43.98
2019-05-02T15:54:12.517Z,44.17
2019-05-02T15:57:00.341Z,44.19
2019-05-02T15:59:41.681Z,43.49
2019-05-02T16:02:17.589Z,43.11
2019-05-02T16:04:52.127Z,43.43
2019-05-02T16:07:24.523Z,43.96
2019-05-02T16:10:01.163Z,43.88
2019-05-02T16:12:35.930Z,44.61
2019-05-02T16:15:13.440Z,44.54
2019-05-02T16:17:42.912Z,44.67
2019-05-02T16:20:17.172Z,44.99
2019-05-02T16:22:50.088Z,44.76
2019-05-02T16:25:24.488Z,43.56
2019-05-02T16:28:02.653Z,42.72
2019-05-02T16:30:32.551Z,42.82
2019-05-02T16:33:08.003Z,41.98
2019-05-02T16:35:39.659Z,41.14
2019-05-02T16:38:14.375Z,41.18
2019-05-02T16:40:47.158Z,40.61
2019-05-02T16:43:19.934Z,40.63
2019-05-02T16:45:52.638Z,40.29
2019-05-02T16:48:32.337Z,40.52
2019-05-02T16:51:02.172Z,40.92
2019-05-02T16:53:36.294Z,41.55
2019-05-02T16:56:09.066Z,42.16
2019-05-02T16:58:43.402Z,42.18
2019-05-02T17:01:24.628Z,43.18
2019-05-02T17:03:50.482Z,43.78
2019-05-02T17:06:25.988Z,44.82
2019-05-02T17:08:58.795Z,45.76
2019-05-02T17:11:35.886Z,46.22
2019-05-02T17:14:12.110Z,47.59
2019-05-02T17:16:42.378Z,48.19
2019-05-02T17:19:15.068Z,48.92
2019-05-02T17:21:54.015Z,49.30
2019-05-02T17:24:26.027Z,49.51
2019-05-02T17:26:56.327Z,49.99
2019-05-02T17:29:29.051Z,50.08
2019-05-02T17:32:02.232Z,50.33
2019-05-02T17:34:35.111Z,50.90
2019-05-02T17:37:11.512Z,51.56
2019-05-02T17:39:45.971Z,51.91
2019-05-02T17:42:17.016Z,51.83
2019-05-02T17:44:51.698Z,52.10
2019-05-02T17:47:25.230Z,52.80
2019-05-02T17:50:01.963Z,53.29
2019-05-02T17:52:38.629Z,54.22
2019-05-02T17:55:13.819Z,54.15
2019-05-02T17:57:46.552Z,54.82
2019-05-02T18:00:21.615Z,55.12
2019-05-02T18:02:54.474Z,56.36
2019-05-02T18:05:32.061Z,56.62
2019-05-02T18:08:01.460Z,56.95
2019-05-02T18:10:34.197Z,57.23
2019-05-02T18:13:07.241Z,57.29
2019-05-02T18:15:41.732Z,58.33
2019-05-02T18:18:14.331Z,57.96
2019-05-02T18:20:47.062Z,58.64
2019-05-02T18:23:24.079Z,59.03
2019-05-02T18:25:57.316Z,59.28
2019-05-02T18:28:28.432Z,59.71
2019-05-02T18:31:02.772Z,60.15
2019-05-02T18:33:35.954Z,60.94
2019-05-02T18:36:09.847Z,60.86
2019-05-02T18:38:42.461Z,61.87
2019-05-02T18:41:15.707Z,61.08
2019-05-02T18:43:48.399Z,61.48
2019-05-02T18:46:22.316Z,62.25
2019-05-02T18:48:55.287Z,62.50
2019-05-02T18:51:28.072Z,60.81
2019-05-02T18:54:04.270Z,53.48
2019-05-02T18:56:42.807Z,54.34
2019-05-02T18:59:09.374Z,56.77
2019-05-02T19:01:42.733Z,58.02
2019-05-02T19:04:15.651Z,58.70
2019-05-02T19:06:48.335Z,59.23
2019-05-02T19:09:22.881Z,60.09
2019-05-02T19:12:05.030Z,60.44
2019-05-02T19:14:29.757Z,61.75
2019-05-02T19:17:05.450Z,61.89
2019-05-02T19:19:38.099Z,62.66
2019-05-02T19:22:13.241Z,60.45
2019-05-02T19:24:45.192Z,54.41
2019-05-02T19:27:21.070Z,56.11
2019-05-02T19:29:54.823Z,58.11
2019-05-02T19:32:28.463Z,59.47
2019-05-02T19:35:06.833Z,60.17
2019-05-02T19:37:44.617Z,61.95
2019-05-02T19:40:20.067Z,62.64
2019-05-02T19:42:52.703Z,59.66
2019-05-02T19:45:25.863Z,54.12
2019-05-02T19:47:58.859Z,55.79
2019-05-02T19:50:43.506Z,58.19
2019-05-02T19:53:17.880Z,59.24
2019-05-02T19:55:47.546Z,60.50
2019-05-02T19:58:20.522Z,60.71
2019-05-02T20:00:53.198Z,61.67
2019-05-02T20:03:26.600Z,63.22
2019-05-02T20:06:02.467Z,58.20
2019-05-02T20:08:33.703Z,53.27
2019-05-02T20:11:06.574Z,54.97
2019-05-02T20:13:39.472Z,56.48
2019-05-02T20:16:17.272Z,57.75
2019-05-02T20:18:52.549Z,59.25
2019-05-02T20:21:28.054Z,59.66
2019-05-02T20:24:02.072Z,61.03
2019-05-02T20:26:35.862Z,61.45
2019-05-02T20:29:08.960Z,62.13
2019-05-02T20:31:41.894Z,62.37
2019-05-02T20:34:14.935Z,60.89
2019-05-02T20:36:47.604Z,52.90
2019-05-02T20:39:22.357Z,52.99
2019-05-02T20:41:54.829Z,55.35
2019-05-02T20:44:28.362Z,57.31
2019-05-02T20:47:02.623Z,58.56
2019-05-02T20:49:35.409Z,59.26
2019-05-02T20:52:08.095Z,60.35
2019-05-02T20:54:42.689Z,60.87
2019-05-02T20:57:15.794Z,61.40
2019-05-02T20:59:48.576Z,61.95
2019-05-02T21:02:21.865Z,62.07
2019-05-02T21:04:54.571Z,53.69
2019-05-02T21:07:33.061Z,54.23
2019-05-02T21:10:12.568Z,56.18
2019-05-02T21:12:45.497Z,57.75
2019-05-02T21:15:18.417Z,58.85
2019-05-02T21:17:51.108Z,59.69
2019-05-02T21:20:24.965Z,59.79
2019-05-02T21:22:57.650Z,61.07
2019-05-02T21:25:32.412Z,61.47
2019-05-02T21:28:04.684Z,62.22
2019-05-02T21:30:37.428Z,62.37
2019-05-02T21:33:17.488Z,63.25
2019-05-02T21:35:51.815Z,54.17
2019-05-02T21:38:24.567Z,53.85
2019-05-02T21:40:57.269Z,55.78
2019-05-02T21:43:31.646Z,57.27
2019-05-02T21:46:04.710Z,58.30
2019-05-02T21:48:37.330Z,59.18
2019-05-02T21:51:12.269Z,60.03
2019-05-02T21:54:04.816Z,60.43
2019-05-02T21:56:43.025Z,61.28
2019-05-02T21:59:15.902Z,61.97
2019-05-02T22:01:57.843Z,63.16
2019-05-02T22:04:31.835Z,56.09
2019-05-02T22:07:05.004Z,53.13
2019-05-02T22:09:38.701Z,55.14
2019-05-02T22:12:12.086Z,57.06
2019-05-02T22:14:45.686Z,58.18
2019-05-02T22:17:18.436Z,59.47
2019-05-02T22:19:52.406Z,60.27
2019-05-02T22:22:25.575Z,61.31
2019-05-02T22:24:58.258Z,61.68
2019-05-02T22:27:32.502Z,61.91
2019-05-02T22:30:08.539Z,60.97
2019-05-02T22:32:42.757Z,55.22
2019-05-02T22:35:15.747Z,56.24
2019-05-02T22:37:50.009Z,57.99
2019-05-02T22:40:22.737Z,59.04
2019-05-02T22:42:55.411Z,60.26
2019-05-02T22:45:28.198Z,61.06
2019-05-02T22:48:02.601Z,61.87
2019-05-02T22:50:36.099Z,62.43
2019-05-02T22:53:08.807Z,60.15
2019-05-02T22:55:42.555Z,53.74
2019-05-02T22:58:15.370Z,54.96
2019-05-02T23:00:48.063Z,56.86
2019-05-02T23:03:21.535Z,58.53
2019-05-02T23:05:55.257Z,60.23
2019-05-02T23:08:28.043Z,60.57
2019-05-02T23:11:01.135Z,62.19
2019-05-02T23:13:34.118Z,62.09
2019-05-02T23:16:07.156Z,53.65
2019-05-02T23:18:40.099Z,54.93
2019-05-02T23:21:12.962Z,56.87
2019-05-02T23:23:45.641Z,58.36
2019-05-02T23:26:27.586Z,59.92
2019-05-02T23:29:02.355Z,61.38
2019-05-02T23:31:36.068Z,61.76
2019-05-02T23:34:09.786Z,64.03
2019-05-02T23:36:42.473Z,55.97
2019-05-02T23:39:15.235Z,53.57
2019-05-02T23:41:47.924Z,55.72
2019-05-02T23:44:22.698Z,57.77
2019-05-02T23:46:56.100Z,58.89
2019-05-02T23:49:29.151Z,61.08
2019-05-02T23:52:02.258Z,61.63
2019-05-02T23:54:35.406Z,63.54
2019-05-02T23:57:08.091Z,57.18
2019-05-02T23:59:42.421Z,53.18
